createdAt,value
2023-04-08T00:01:16.166Z,5.35
2023-04-08T00:03:44.022Z,5.45
2023-04-08T00:06:12.064Z,5.20
2023-04-08T00:08:39.802Z,5.33
2023-04-08T00:11:07.544Z,5.19
2023-04-08T00:13:35.421Z,5.17
2023-04-08T00:16:03.328Z,4.57
2023-04-08T00:18:31.494Z,4.41
2023-04-08T00:20:59.222Z,4.29
2023-04-08T00:23:26.936Z,4.42
2023-04-08T00:25:54.677Z,4.76
2023-04-08T00:28:22.555Z,4.37
2023-04-08T00:30:51.470Z,4.55
2023-04-08T00:33:19.248Z,4.69
2023-04-08T00:35:47.226Z,4.83
2023-04-08T00:38:15.109Z,4.94
2023-04-08T00:40:42.941Z,4.92
2023-04-08T00:43:10.775Z,4.87
2023-04-08T00:45:38.594Z,4.61
2023-04-08T00:48:06.434Z,4.57
2023-04-08T00:50:34.168Z,4.55
2023-04-08T00:53:01.908Z,4.63
2023-04-08T00:55:29.644Z,4.24
2023-04-08T00:57:57.336Z,3.77
2023-04-08T01:00:25.391Z,4.15
2023-04-08T01:03:18.975Z,3.78
2023-04-08T01:05:46.871Z,3.96
2023-04-08T01:08:14.596Z,4.30
2023-04-08T01:10:44.382Z,4.18
2023-04-08T01:13:12.739Z,4.16
2023-04-08T01:15:42.306Z,3.66
2023-04-08T01:18:12.544Z,4.18
2023-04-08T01:20:42.332Z,4.19
2023-04-08T01:23:29.283Z,4.34
2023-04-08T01:25:57.370Z,4.32
2023-04-08T01:28:27.157Z,4.24
2023-04-08T01:30:56.966Z,4.08
2023-04-08T01:33:24.832Z,4.18
2023-04-08T01:35:56.544Z,4.44
2023-04-08T01:38:25.977Z,4.38
2023-04-08T01:40:53.875Z,4.38
2023-04-08T01:43:23.327Z,4.29
2023-04-08T01:45:54.414Z,4.53
2023-04-08T01:48:22.248Z,4.48
2023-04-08T01:50:51.305Z,3.94
2023-04-08T01:53:18.998Z,4.26
2023-04-08T01:55:46.786Z,4.36
2023-04-08T01:58:19.176Z,3.98
2023-04-08T02:00:46.904Z,3.82
2023-04-08T02:03:17.334Z,3.93
2023-04-08T02:05:47.266Z,4.04
2023-04-08T02:08:15.005Z,4.15
2023-04-08T02:10:42.715Z,4.12
2023-04-08T02:13:10.617Z,4.05
2023-04-08T02:15:40.365Z,4.00
2023-04-08T02:18:16.675Z,4.19
2023-04-08T02:20:52.768Z,4.31
2023-04-08T02:23:21.711Z,4.36
2023-04-08T02:25:49.518Z,4.43
2023-04-08T02:28:18.353Z,4.31
2023-04-08T02:30:49.051Z,4.30
2023-04-08T02:33:19.006Z,4.22
2023-04-08T02:35:46.790Z,4.29
2023-04-08T02:38:14.518Z,4.32
2023-04-08T02:40:42.279Z,4.29
2023-04-08T02:43:10.316Z,4.31
2023-04-08T02:45:40.979Z,4.36
2023-04-08T02:48:09.757Z,4.32
2023-04-08T02:50:37.551Z,4.52
2023-04-08T02:53:05.502Z,4.48
2023-04-08T02:55:34.589Z,4.49
2023-04-08T02:58:02.313Z,4.43
2023-04-08T03:00:30.116Z,4.55
2023-04-08T03:02:58.160Z,4.60
2023-04-08T03:05:26.503Z,4.69
2023-04-08T03:07:54.386Z,4.42
2023-04-08T03:10:22.039Z,4.51
2023-04-08T03:12:49.781Z,4.53
2023-04-08T03:15:17.514Z,4.45
2023-04-08T03:17:45.387Z,4.34
2023-04-08T03:20:13.120Z,4.48
2023-04-08T03:22:41.126Z,4.60
2023-04-08T03:25:09.220Z,4.49
2023-04-08T03:27:36.952Z,4.51
2023-04-08T03:30:04.955Z,4.47
2023-04-08T03:32:33.180Z,4.54
2023-04-08T03:35:00.846Z,4.51
2023-04-08T03:37:28.611Z,4.61
2023-04-08T03:39:56.409Z,4.61
2023-04-08T03:42:24.258Z,4.76
2023-04-08T03:44:51.933Z,4.54
2023-04-08T03:47:19.762Z,4.45
2023-04-08T03:49:47.456Z,4.55
2023-04-08T03:52:15.163Z,4.60
2023-04-08T03:54:42.839Z,4.59
2023-04-08T03:57:12.010Z,4.60
2023-04-08T03:59:41.156Z,4.56
2023-04-08T04:02:08.962Z,4.54
2023-04-08T04:04:37.176Z,4.51
2023-04-08T04:07:04.916Z,4.47
2023-04-08T04:09:32.640Z,4.52
2023-04-08T04:12:00.451Z,4.59
2023-04-08T04:14:28.135Z,4.57
2023-04-08T04:16:55.956Z,4.52
2023-04-08T04:19:23.871Z,4.61
2023-04-08T04:21:51.996Z,4.66
2023-04-08T04:24:19.665Z,4.64
2023-04-08T04:26:47.563Z,4.57
2023-04-08T04:29:15.429Z,4.68
2023-04-08T04:31:43.384Z,4.68
2023-04-08T04:34:11.144Z,4.71
2023-04-08T04:36:38.840Z,4.68
2023-04-08T04:39:06.569Z,4.55
2023-04-08T04:41:38.829Z,4.66
2023-04-08T04:44:06.917Z,4.66
2023-04-08T04:46:34.703Z,4.65
2023-04-08T04:49:02.442Z,4.61
2023-04-08T04:51:32.180Z,4.39
2023-04-08T04:53:59.900Z,4.46
2023-04-08T04:56:27.813Z,4.50
2023-04-08T04:58:55.634Z,4.56
2023-04-08T05:01:23.340Z,4.65
2023-04-08T05:03:51.325Z,4.44
2023-04-08T05:06:19.078Z,4.34
2023-04-08T05:08:46.836Z,4.39
2023-04-08T05:11:14.587Z,4.51
2023-04-08T05:13:42.332Z,4.45
2023-04-08T05:16:10.799Z,4.61
2023-04-08T05:18:38.609Z,4.55
2023-04-08T05:21:06.349Z,4.51
2023-04-08T05:23:35.169Z,4.47
2023-04-08T05:26:02.880Z,4.53
2023-04-08T05:28:30.747Z,4.65
2023-04-08T05:30:58.500Z,4.60
2023-04-08T05:33:26.662Z,4.49
2023-04-08T05:35:54.479Z,4.37
2023-04-08T05:38:22.309Z,4.41
2023-04-08T05:40:50.022Z,4.43
2023-04-08T05:43:17.885Z,4.46
2023-04-08T05:45:45.641Z,4.35
2023-04-08T05:48:13.420Z,4.40
2023-04-08T05:50:41.144Z,4.45
2023-04-08T05:53:09.916Z,4.44
2023-04-08T05:55:37.621Z,4.63
2023-04-08T05:58:05.456Z,4.78
2023-04-08T06:00:33.221Z,4.99
2023-04-08T06:03:01.317Z,4.40
2023-04-08T06:05:29.289Z,3.93
2023-04-08T06:07:56.986Z,4.79
2023-04-08T06:10:24.699Z,5.13
2023-04-08T06:12:52.462Z,4.97
2023-04-08T06:15:21.142Z,5.13
2023-04-08T06:17:48.913Z,5.53
2023-04-08T06:20:16.620Z,5.73
2023-04-08T06:22:44.350Z,5.73
2023-04-08T06:25:12.030Z,5.91
2023-04-08T06:27:39.763Z,6.09
2023-04-08T06:30:08.222Z,5.88
2023-04-08T06:32:36.013Z,5.66
2023-04-08T06:35:03.902Z,5.43
2023-04-08T06:37:31.654Z,5.56
2023-04-08T06:39:59.327Z,5.37
2023-04-08T06:42:27.362Z,5.53
2023-04-08T06:45:15.003Z,6.12
2023-04-08T06:47:42.830Z,6.50
2023-04-08T06:50:10.764Z,6.70
2023-04-08T06:52:38.471Z,6.58
2023-04-08T06:55:06.704Z,6.57
2023-04-08T06:57:34.467Z,6.77
2023-04-08T07:00:02.528Z,7.03
2023-04-08T07:02:30.340Z,7.49
2023-04-08T07:04:58.127Z,7.41
2023-04-08T07:07:27.070Z,6.90
2023-04-08T07:09:54.780Z,7.34
2023-04-08T07:12:22.485Z,7.48
2023-04-08T07:14:50.163Z,7.81
2023-04-08T07:17:17.873Z,7.74
2023-04-08T07:19:45.744Z,8.13
2023-04-08T07:22:13.496Z,7.86
2023-04-08T07:24:43.407Z,8.13
2023-04-08T07:27:11.160Z,8.06
2023-04-08T07:29:38.843Z,8.48
2023-04-08T07:32:07.051Z,8.56
2023-04-08T07:34:36.276Z,8.82
2023-04-08T07:37:04.052Z,8.72
2023-04-08T07:39:31.787Z,8.85
2023-04-08T07:41:59.433Z,8.21
2023-04-08T07:44:27.139Z,8.01
2023-04-08T07:46:54.798Z,8.15
2023-04-08T07:49:22.651Z,8.45
2023-04-08T07:51:50.383Z,8.13
2023-04-08T07:54:18.209Z,8.13
2023-04-08T07:56:46.213Z,8.12
2023-04-08T07:59:14.093Z,8.11
2023-04-08T08:01:41.851Z,8.31
2023-04-08T08:04:09.826Z,7.87
2023-04-08T08:06:37.760Z,7.97
2023-04-08T08:09:05.894Z,8.66
2023-04-08T08:11:33.603Z,8.85
2023-04-08T08:14:01.654Z,8.74
2023-04-08T08:16:29.722Z,8.84
2023-04-08T08:18:58.135Z,9.05
2023-04-08T08:21:26.615Z,9.37
2023-04-08T08:23:54.871Z,9.22
2023-04-08T08:26:23.134Z,9.73
2023-04-08T08:28:51.138Z,9.75
2023-04-08T08:31:18.898Z,9.73
2023-04-08T08:33:47.317Z,9.25
2023-04-08T08:36:15.093Z,9.02
2023-04-08T08:38:42.858Z,9.71
2023-04-08T08:41:10.571Z,10.06
2023-04-08T08:43:38.361Z,10.02
2023-04-08T08:46:08.735Z,9.49
2023-04-08T08:48:38.749Z,9.84
2023-04-08T08:51:10.112Z,9.74
2023-04-08T08:53:38.002Z,9.43
2023-04-08T08:56:17.950Z,9.75
2023-04-08T08:58:47.842Z,9.52
2023-04-08T09:01:38.884Z,9.99
2023-04-08T09:04:15.832Z,10.04
2023-04-08T09:06:44.723Z,9.78
2023-04-08T09:09:12.587Z,10.11
2023-04-08T09:11:46.205Z,9.54
2023-04-08T09:14:26.410Z,10.10
2023-04-08T09:16:54.210Z,10.05
2023-04-08T09:19:22.038Z,10.77
2023-04-08T09:22:06.937Z,10.84
2023-04-08T09:24:35.082Z,10.85
2023-04-08T09:27:03.602Z,10.47
2023-04-08T09:29:34.294Z,10.48
2023-04-08T09:32:03.319Z,10.59
2023-04-08T09:34:34.128Z,10.15
2023-04-08T09:37:02.326Z,10.73
2023-04-08T09:39:30.932Z,10.79
2023-04-08T09:41:58.895Z,11.08
2023-04-08T09:44:26.765Z,11.61
2023-04-08T09:47:20.834Z,11.54
2023-04-08T09:49:51.457Z,11.49
2023-04-08T09:52:24.725Z,11.72
2023-04-08T09:55:04.344Z,11.78
2023-04-08T09:57:37.410Z,10.93
2023-04-08T10:00:15.522Z,11.51
2023-04-08T10:02:49.948Z,11.71
2023-04-08T10:05:18.520Z,11.84
2023-04-08T10:07:46.430Z,11.45
2023-04-08T10:10:14.264Z,10.34
2023-04-08T10:12:41.978Z,11.39
2023-04-08T10:15:26.372Z,11.07
2023-04-08T10:17:54.785Z,11.08
2023-04-08T10:20:34.435Z,11.26
2023-04-08T10:23:05.438Z,11.33
2023-04-08T10:25:39.319Z,11.92
2023-04-08T10:28:12.927Z,12.43
2023-04-08T10:30:50.078Z,12.51
2023-04-08T10:33:29.555Z,11.75
2023-04-08T10:36:10.375Z,12.13
2023-04-08T10:38:38.936Z,11.90
2023-04-08T10:41:06.679Z,11.32
2023-04-08T10:43:34.750Z,11.62
2023-04-08T10:46:03.291Z,12.48
2023-04-08T10:48:31.242Z,12.49
2023-04-08T10:51:00.226Z,12.81
2023-04-08T10:53:34.699Z,12.95
2023-04-08T10:56:18.714Z,12.45
2023-04-08T10:58:50.391Z,12.74
2023-04-08T11:01:18.338Z,13.14
2023-04-08T11:03:46.264Z,12.72
2023-04-08T11:06:14.115Z,12.63
2023-04-08T11:08:42.248Z,11.40
2023-04-08T11:11:11.130Z,12.24
2023-04-08T11:13:51.172Z,12.34
2023-04-08T11:16:23.746Z,12.40
2023-04-08T11:18:51.557Z,12.19
2023-04-08T11:21:19.339Z,11.88
2023-04-08T11:23:50.051Z,11.39
2023-04-08T11:26:18.087Z,11.79
2023-04-08T11:28:46.480Z,11.68
2023-04-08T11:31:14.309Z,11.24
2023-04-08T11:33:50.242Z,11.31
2023-04-08T11:36:18.789Z,10.89
2023-04-08T11:38:47.994Z,11.09
2023-04-08T11:41:16.393Z,11.19
2023-04-08T11:43:57.072Z,10.69
2023-04-08T11:46:25.025Z,11.11
2023-04-08T11:49:00.042Z,11.10
2023-04-08T11:51:28.641Z,11.15
2023-04-08T11:53:56.975Z,10.65
2023-04-08T11:56:25.088Z,10.87
2023-04-08T11:58:53.352Z,11.21
2023-04-08T12:01:21.617Z,10.99
2023-04-08T12:03:56.159Z,11.40
2023-04-08T12:06:24.743Z,11.55
2023-04-08T12:08:52.735Z,11.40
2023-04-08T12:11:20.974Z,11.17
2023-04-08T12:13:50.912Z,10.39
2023-04-08T12:16:19.011Z,10.28
2023-04-08T12:18:46.983Z,10.26
2023-04-08T12:21:14.808Z,11.04
2023-04-08T12:23:42.495Z,10.61
2023-04-08T12:26:10.319Z,10.86
2023-04-08T12:28:38.003Z,10.89
2023-04-08T12:31:05.933Z,11.43
2023-04-08T12:33:33.716Z,10.78
2023-04-08T12:36:01.569Z,10.80
2023-04-08T12:38:29.308Z,10.45
2023-04-08T12:40:57.121Z,10.26
2023-04-08T12:43:24.864Z,10.59
2023-04-08T12:45:52.690Z,10.82
2023-04-08T12:48:20.510Z,10.53
2023-04-08T12:50:48.292Z,10.46
2023-04-08T12:53:16.072Z,10.20
2023-04-08T12:55:44.797Z,10.04
2023-04-08T12:58:12.750Z,10.37
2023-04-08T13:00:46.249Z,10.41
2023-04-08T13:03:17.231Z,10.14
2023-04-08T13:05:45.110Z,10.29
2023-04-08T13:08:12.948Z,10.48
2023-04-08T13:10:41.932Z,10.74
2023-04-08T13:13:09.594Z,11.13
2023-04-08T13:15:38.114Z,10.92
2023-04-08T13:18:06.045Z,11.29
2023-04-08T13:20:33.852Z,10.19
2023-04-08T13:23:09.190Z,10.10
2023-04-08T13:25:38.806Z,9.73
2023-04-08T13:28:07.784Z,9.35
2023-04-08T13:30:37.717Z,9.95
2023-04-08T13:33:05.720Z,9.45
2023-04-08T13:35:40.623Z,9.80
2023-04-08T13:38:11.776Z,9.54
2023-04-08T13:40:39.804Z,9.44
2023-04-08T13:43:08.220Z,9.74
2023-04-08T13:45:36.161Z,9.89
2023-04-08T13:48:04.863Z,10.31
2023-04-08T13:50:32.740Z,10.32
2023-04-08T13:53:00.486Z,9.62
2023-04-08T13:55:28.200Z,10.13
2023-04-08T13:57:56.260Z,9.59
2023-04-08T14:00:25.431Z,10.05
2023-04-08T14:02:53.299Z,9.86
2023-04-08T14:05:21.202Z,9.54
2023-04-08T14:07:49.016Z,10.11
2023-04-08T14:10:17.507Z,10.03
2023-04-08T14:12:46.679Z,10.06
2023-04-08T14:15:14.350Z,10.50
2023-04-08T14:17:42.744Z,10.67
2023-04-08T14:20:10.801Z,10.87
2023-04-08T14:22:38.525Z,10.87
2023-04-08T14:25:06.543Z,9.86
2023-04-08T14:27:34.333Z,10.06
2023-04-08T14:30:02.058Z,10.30
2023-04-08T14:32:29.809Z,10.60
2023-04-08T14:34:57.785Z,11.03
2023-04-08T14:37:25.561Z,11.45
2023-04-08T14:39:53.243Z,11.51
2023-04-08T14:42:22.541Z,11.47
2023-04-08T14:44:50.355Z,11.67
2023-04-08T14:47:18.158Z,11.77
2023-04-08T14:49:45.917Z,11.60
2023-04-08T14:52:13.679Z,11.54
2023-04-08T14:54:41.664Z,11.60
2023-04-08T14:57:09.469Z,11.20
2023-04-08T14:59:37.123Z,11.69
2023-04-08T15:02:05.139Z,11.73
2023-04-08T15:04:33.209Z,10.92
2023-04-08T15:07:01.278Z,11.68
2023-04-08T15:09:29.064Z,11.66
2023-04-08T15:11:58.081Z,11.50
2023-04-08T15:14:25.936Z,11.60
2023-04-08T15:16:53.649Z,11.68
2023-04-08T15:19:21.348Z,11.18
2023-04-08T15:21:49.070Z,11.05
2023-04-08T15:24:16.745Z,10.79
2023-04-08T15:26:44.460Z,10.56
2023-04-08T15:29:12.204Z,10.01
2023-04-08T15:31:40.173Z,9.16
2023-04-08T15:34:08.200Z,8.85
2023-04-08T15:36:37.403Z,9.22
2023-04-08T15:39:05.169Z,8.22
2023-04-08T15:41:32.972Z,8.15
2023-04-08T15:44:00.787Z,8.81
2023-04-08T15:46:28.559Z,8.37
2023-04-08T15:48:56.409Z,8.54
2023-04-08T15:51:24.059Z,8.74
2023-04-08T15:53:51.997Z,9.29
2023-04-08T15:56:19.744Z,9.66
2023-04-08T15:58:47.545Z,9.28
2023-04-08T16:01:16.964Z,9.24
2023-04-08T16:03:44.783Z,9.55
2023-04-08T16:06:12.561Z,9.51
2023-04-08T16:08:40.571Z,9.60
2023-04-08T16:11:08.856Z,9.84
2023-04-08T16:13:39.114Z,9.87
2023-04-08T16:16:08.794Z,9.57
2023-04-08T16:18:36.634Z,9.14
2023-04-08T16:21:05.812Z,9.01
2023-04-08T16:23:35.661Z,9.30
2023-04-08T16:26:08.017Z,9.41
2023-04-08T16:28:37.058Z,9.16
2023-04-08T16:31:04.868Z,9.37
2023-04-08T16:33:32.767Z,9.41
2023-04-08T16:36:00.638Z,9.34
2023-04-08T16:38:28.403Z,9.34
2023-04-08T16:40:59.250Z,9.30
2023-04-08T16:43:27.320Z,9.43
2023-04-08T16:45:55.059Z,9.26
2023-04-08T16:48:23.320Z,9.51
2023-04-08T16:50:51.095Z,9.23
2023-04-08T16:53:18.860Z,9.56
2023-04-08T16:55:46.556Z,9.51
2023-04-08T16:58:14.333Z,9.47
2023-04-08T17:00:42.068Z,9.41
2023-04-08T17:03:09.939Z,9.34
2023-04-08T17:05:38.499Z,9.19
2023-04-08T17:08:06.641Z,9.23
2023-04-08T17:10:34.499Z,9.40
2023-04-08T17:13:04.608Z,9.42
2023-04-08T17:15:32.410Z,9.09
2023-04-08T17:18:00.649Z,8.66
2023-04-08T17:20:29.042Z,8.49
2023-04-08T17:22:57.014Z,8.47
2023-04-08T17:25:24.728Z,8.59
2023-04-08T17:27:52.649Z,8.96
2023-04-08T17:30:20.466Z,9.20
2023-04-08T17:32:48.373Z,8.88
2023-04-08T17:35:16.188Z,8.90
2023-04-08T17:37:43.970Z,8.42
2023-04-08T17:40:11.997Z,8.57
2023-04-08T17:42:39.756Z,8.35
2023-04-08T17:45:08.132Z,8.26
2023-04-08T17:47:36.265Z,8.63
2023-04-08T17:50:04.218Z,8.94
2023-04-08T17:52:32.108Z,8.93
2023-04-08T17:55:00.476Z,9.15
2023-04-08T17:57:28.610Z,9.07
2023-04-08T17:59:56.490Z,9.23
2023-04-08T18:02:24.524Z,9.21
2023-04-08T18:04:52.398Z,9.00
2023-04-08T18:07:20.097Z,8.96
2023-04-08T18:09:49.011Z,9.02
2023-04-08T18:12:16.761Z,9.18
2023-04-08T18:14:44.621Z,9.01
2023-04-08T18:17:12.391Z,8.96
2023-04-08T18:19:40.264Z,8.85
2023-04-08T18:22:07.949Z,8.90
2023-04-08T18:24:35.801Z,8.89
2023-04-08T18:27:05.107Z,9.01
2023-04-08T18:29:32.946Z,8.95
2023-04-08T18:32:00.659Z,8.86
2023-04-08T18:34:28.386Z,8.55
2023-04-08T18:36:56.420Z,8.60
2023-04-08T18:39:24.348Z,8.73
2023-04-08T18:41:52.061Z,8.73
2023-04-08T18:44:19.836Z,8.60
2023-04-08T18:46:47.565Z,8.67
2023-04-08T18:49:15.454Z,8.78
2023-04-08T18:51:59.121Z,8.75
2023-04-08T18:54:29.450Z,8.75
2023-04-08T18:56:57.256Z,8.79
2023-04-08T18:59:25.158Z,8.89
2023-04-08T19:01:52.957Z,8.99
2023-04-08T19:04:22.208Z,8.85
2023-04-08T19:06:50.049Z,8.77
2023-04-08T19:09:17.807Z,8.70
2023-04-08T19:11:45.588Z,8.84
2023-04-08T19:14:13.513Z,8.81
2023-04-08T19:16:41.736Z,8.90
2023-04-08T19:19:09.727Z,8.74
2023-04-08T19:21:37.894Z,8.53
2023-04-08T19:24:06.346Z,8.77
2023-04-08T19:26:34.209Z,8.74
2023-04-08T19:29:01.998Z,8.54
2023-04-08T19:31:29.814Z,8.51
2023-04-08T19:33:57.674Z,8.49
2023-04-08T19:36:26.008Z,8.45
2023-04-08T19:38:53.764Z,8.47
2023-04-08T19:41:21.470Z,8.41
2023-04-08T19:43:49.440Z,8.35
2023-04-08T19:46:17.302Z,8.39
2023-04-08T19:48:45.430Z,8.33
2023-04-08T19:51:22.582Z,8.42
2023-04-08T19:53:53.471Z,8.33
2023-04-08T19:56:21.695Z,8.50
2023-04-08T19:58:49.944Z,8.61
2023-04-08T20:01:18.248Z,8.62
2023-04-08T20:03:50.675Z,8.63
2023-04-08T20:06:19.072Z,8.70
2023-04-08T20:08:46.851Z,8.68
2023-04-08T20:11:14.526Z,8.31
2023-04-08T20:13:42.316Z,8.32
2023-04-08T20:16:10.122Z,8.37
2023-04-08T20:18:38.350Z,8.44
2023-04-08T20:21:07.250Z,8.70
2023-04-08T20:23:35.021Z,8.71
2023-04-08T20:26:02.773Z,8.60
2023-04-08T20:28:30.582Z,8.58
2023-04-08T20:30:58.546Z,8.58
2023-04-08T20:33:27.068Z,8.50
2023-04-08T20:35:54.822Z,8.32
2023-04-08T20:38:23.226Z,8.38
2023-04-08T20:40:50.972Z,8.56
2023-04-08T20:43:18.731Z,8.54
2023-04-08T20:45:46.468Z,8.39
2023-04-08T20:48:14.395Z,8.37
2023-04-08T20:50:42.084Z,8.41
2023-04-08T20:53:10.283Z,8.40
2023-04-08T20:55:37.989Z,8.31
2023-04-08T20:58:07.821Z,8.31
2023-04-08T21:00:35.681Z,8.25
2023-04-08T21:03:03.525Z,8.19
2023-04-08T21:05:31.337Z,8.44
2023-04-08T21:08:00.290Z,8.24
2023-04-08T21:10:28.046Z,8.06
2023-04-08T21:12:55.916Z,8.30
2023-04-08T21:15:23.718Z,8.12
2023-04-08T21:17:51.486Z,8.16
2023-04-08T21:20:19.290Z,8.25
2023-04-08T21:22:47.012Z,8.39
2023-04-08T21:25:14.743Z,8.51
2023-04-08T21:27:42.964Z,8.47
2023-04-08T21:30:11.171Z,8.50
2023-04-08T21:32:39.057Z,8.39
2023-04-08T21:35:07.067Z,8.35
2023-04-08T21:37:34.722Z,8.17
2023-04-08T21:40:04.041Z,8.28
2023-04-08T21:42:32.982Z,8.29
2023-04-08T21:45:00.855Z,8.26
2023-04-08T21:47:28.692Z,8.27
2023-04-08T21:49:56.590Z,8.30
2023-04-08T21:52:24.335Z,8.30
2023-04-08T21:54:52.244Z,8.38
2023-04-08T21:57:19.925Z,8.13
2023-04-08T21:59:48.167Z,8.00
2023-04-08T22:02:16.445Z,8.22
2023-04-08T22:04:44.715Z,8.30
2023-04-08T22:07:12.461Z,8.36
2023-04-08T22:09:40.409Z,8.16
2023-04-08T22:12:09.429Z,8.22
2023-04-08T22:14:37.593Z,8.24
2023-04-08T22:17:05.675Z,8.25
2023-04-08T22:19:33.661Z,8.29
2023-04-08T22:22:01.414Z,8.17
2023-04-08T22:24:29.316Z,8.26
2023-04-08T22:26:57.576Z,8.24
2023-04-08T22:29:25.392Z,8.21
2023-04-08T22:31:53.078Z,8.22
2023-04-08T22:34:20.826Z,8.36
2023-04-08T22:36:48.525Z,8.29
2023-04-08T22:39:16.381Z,8.27
2023-04-08T22:41:44.108Z,8.23
2023-04-08T22:44:11.812Z,8.27
2023-04-08T22:46:39.642Z,8.30
2023-04-08T22:49:07.488Z,8.31
2023-04-08T22:51:35.185Z,8.28
2023-04-08T22:54:02.902Z,8.29
2023-04-08T22:56:31.102Z,8.25
2023-04-08T22:58:58.909Z,8.35
2023-04-08T23:01:26.654Z,8.30
2023-04-08T23:03:54.460Z,8.12
2023-04-08T23:06:22.165Z,8.22
2023-04-08T23:08:50.073Z,8.23
2023-04-08T23:11:17.907Z,8.17
2023-04-08T23:13:45.776Z,8.18
2023-04-08T23:16:13.520Z,8.11
2023-04-08T23:18:41.365Z,8.12
2023-04-08T23:21:09.028Z,8.21
2023-04-08T23:23:36.769Z,8.14
2023-04-08T23:26:04.545Z,7.79
2023-04-08T23:28:32.354Z,7.88
2023-04-08T23:31:03.283Z,7.93
2023-04-08T23:33:31.014Z,7.91
2023-04-08T23:35:58.719Z,7.89
2023-04-08T23:38:26.466Z,8.02
2023-04-08T23:40:54.230Z,8.07
2023-04-08T23:43:21.917Z,8.03
2023-04-08T23:45:49.654Z,7.95
2023-04-08T23:48:17.421Z,7.75
2023-04-08T23:50:45.489Z,7.83
2023-04-08T23:53:13.188Z,7.77
2023-04-08T23:55:41.342Z,7.77
2023-04-08T23:58:08.999Z,7.69
